Time;durP1;ratioP1;P1;durP2;ratioP2;P2;SDS_P1;SDS_P2;PMS_P1;PMS_P2;Temp;Humidity;BMP_temperature;BMP_pressure;BME280_temperature;BME280_humidity;BME280_pressure;Samples;Min_cycle;Max_cycle;Signal;HPM_P1;HPM_P2
2022/12/29 00:00:21;;;;;;;21.27;10.35;;;;;;;5.60;74.58;100885.09;3157821;28;20497;-68
2022/12/29 00:01:52;;;;;;;29.05;11.32;;;;;;;5.58;74.66;100892.00;3157575;28;20102;-68
2022/12/29 00:03:25;;;;;;;18.40;9.80;;;;;;;5.59;74.71;100893.72;3157917;28;20178;-68
2022/12/29 00:04:57;;;;;;;23.13;10.45;;;;;;;5.59;74.74;100896.31;3157684;28;20060;-68
2022/12/29 00:06:28;;;;;;;18.67;10.15;;;;;;;5.59;74.64;100893.72;3157962;28;20097;-68
2022/12/29 00:08:00;;;;;;;26.35;10.73;;;;;;;5.57;74.64;100899.78;3157369;28;20131;-68
2022/12/29 00:09:32;;;;;;;19.67;9.90;;;;;;;5.56;74.71;100888.59;3157838;28;20048;-68
2022/12/29 00:11:04;;;;;;;17.52;9.43;;;;;;;5.60;74.73;100892.84;3157709;28;20730;-68
2022/12/29 00:16:14;;;;;;;14.65;8.60;;;;;;;5.60;74.65;100895.44;3153864;28;20072;-68
2022/12/29 00:17:46;;;;;;;17.15;9.77;;;;;;;5.59;74.76;100898.00;3157575;28;20054;-69
2022/12/29 00:36:05;;;;;;;20.58;11.00;;;;;;;5.72;74.75;100922.06;3155555;28;20418;-68
2022/12/29 00:44:55;;;;;;;22.98;9.88;;;;;;;5.79;74.68;100931.47;3152299;28;20047;-69
2022/12/29 00:46:27;;;;;;;22.58;10.90;;;;;;;5.83;74.75;100938.34;3157411;28;20116;-69
2022/12/29 00:47:59;;;;;;;22.77;10.35;;;;;;;5.89;74.72;100938.31;3157558;28;20127;-69
2022/12/29 00:49:30;;;;;;;21.27;10.30;;;;;;;5.50;74.80;100880.84;3157465;28;20052;-67
2022/12/29 00:51:03;;;;;;;18.80;10.38;;;;;;;5.91;74.68;100933.97;3155579;28;20040;-69
2022/12/29 00:52:35;;;;;;;23.88;11.30;;;;;;;5.90;74.84;100935.69;3149848;28;20052;-69
2022/12/29 00:54:06;;;;;;;24.88;10.95;;;;;;;5.53;74.75;100887.72;3157359;28;20048;-69
2022/12/29 00:55:38;;;;;;;29.17;11.02;;;;;;;5.91;74.98;100947.75;3157254;28;20070;-69
2022/12/29 00:57:11;;;;;;;33.15;11.30;;;;;;;5.91;75.18;100944.31;3152628;28;20131;-70
2022/12/29 00:58:43;;;;;;;22.00;10.65;;;;;;;5.90;75.18;100950.34;3155208;28;20144;-69
2022/12/29 01:00:15;;;;;;;22.30;10.68;;;;;;;5.90;75.14;100942.59;3157161;28;20051;-69
2022/12/29 01:01:48;;;;;;;25.48;11.48;;;;;;;5.91;75.28;100944.31;3157363;28;20875;-69
2022/12/29 01:03:20;;;;;;;24.55;11.43;;;;;;;5.88;75.36;100934.00;3156960;28;20531;-69
2022/12/29 01:04:52;;;;;;;24.85;11.48;;;;;;;5.90;75.28;100937.44;3157357;28;20449;-69
2022/12/29 01:06:24;;;;;;;22.83;11.30;;;;;;;5.90;75.39;100943.44;3157008;28;20105;-68
2022/12/29 01:07:56;;;;;;;19.38;9.68;;;;;;;5.90;75.41;100938.28;3157315;28;20135;-69
2022/12/29 01:11:16;;;;;;;24.55;10.85;;;;;;;5.93;75.29;100943.47;3135622;28;20036;-68
2022/12/29 01:12:49;;;;;;;27.98;12.05;;;;;;;5.94;75.35;100936.56;3156545;28;20140;-69
2022/12/29 01:14:21;;;;;;;25.10;11.63;;;;;;;5.93;75.26;100938.28;3156939;28;20079;-69
2022/12/29 01:15:54;;;;;;;28.25;11.55;;;;;;;5.90;75.40;100934.84;3155965;28;20108;-69
2022/12/29 01:17:26;;;;;;;28.48;12.82;;;;;;;5.78;75.27;100909.09;3154519;28;20047;-69
2022/12/29 01:18:57;;;;;;;29.60;12.70;;;;;;;5.93;75.25;100935.72;3157106;28;22378;-69
2022/12/29 01:20:29;;;;;;;28.42;13.00;;;;;;;5.87;75.36;100919.34;3157064;28;20139;-69
2022/12/29 01:22:02;;;;;;;25.60;11.82;;;;;;;5.91;75.36;100937.41;3157047;28;20070;-69
2022/12/29 01:23:34;;;;;;;25.50;12.73;;;;;;;5.89;75.28;100930.56;3157286;28;20048;-68
2022/12/29 01:25:07;;;;;;;33.08;12.48;;;;;;;5.88;75.35;100926.22;3156877;28;20044;-69
2022/12/29 01:26:38;;;;;;;23.55;11.43;;;;;;;5.90;75.34;100935.69;3152485;28;20092;-69
2022/12/29 01:28:10;;;;;;;23.73;11.85;;;;;;;5.91;75.31;100933.97;3156907;28;20121;-69
2022/12/29 01:29:41;;;;;;;27.98;11.80;;;;;;;5.91;75.25;100926.22;3157243;28;20444;-69
2022/12/29 01:31:15;;;;;;;23.67;11.48;;;;;;;5.88;75.19;100929.66;3156986;28;20044;-69
2022/12/29 01:32:47;;;;;;;23.08;11.50;;;;;;;5.87;75.24;100925.38;3153460;28;20079;-68
2022/12/29 01:34:18;;;;;;;27.63;12.55;;;;;;;5.91;75.16;100923.63;3156548;28;20121;-69
2022/12/29 01:35:49;;;;;;;22.77;12.70;;;;;;;5.90;75.15;100930.53;3156987;28;20052;-69
2022/12/29 01:37:23;;;;;;;21.40;11.65;;;;;;;5.95;75.30;100921.94;3156665;28;20491;-68
2022/12/29 01:38:54;;;;;;;24.30;11.75;;;;;;;5.97;74.98;100926.19;3157153;28;20543;-68
2022/12/29 01:40:26;;;;;;;24.80;12.25;;;;;;;5.96;75.00;100919.31;3150484;28;20041;-68
2022/12/29 01:41:58;;;;;;;24.60;12.02;;;;;;;6.00;74.94;100918.41;3148573;28;20052;-67
2022/12/29 01:43:40;;;;;;;21.95;11.50;;;;;;;6.04;74.76;100921.84;3157734;28;20106;-69
2022/12/29 01:45:14;;;;;;;24.92;11.70;;;;;;;6.07;74.78;100920.09;3157246;28;20529;-68
2022/12/29 01:46:49;;;;;;;26.05;11.23;;;;;;;6.10;74.62;100916.63;3159617;28;20105;-68
2022/12/29 01:48:20;;;;;;;25.65;10.85;;;;;;;6.11;74.44;100911.41;3159520;28;20052;-69
2022/12/29 01:49:55;;;;;;;33.60;11.88;;;;;;;6.19;74.34;100913.94;3159536;28;20129;-69
2022/12/29 01:51:29;;;;;;;22.77;11.85;;;;;;;6.16;74.39;100898.47;3154083;28;20044;-68
2022/12/29 01:53:07;;;;;;;27.23;11.88;;;;;;;6.23;74.21;100900.09;3156182;28;20063;-68
2022/12/29 01:54:43;;;;;;;24.23;11.45;;;;;;;6.24;74.23;100893.19;3159256;28;20513;-69
2022/12/29 01:56:20;;;;;;;21.90;10.70;;;;;;;6.28;74.21;100900.91;3156493;28;20055;-69
2022/12/29 01:57:57;;;;;;;25.13;11.35;;;;;;;6.30;73.97;100898.31;3153488;28;20055;-69
2022/12/29 01:59:32;;;;;;;20.83;11.10;;;;;;;6.25;73.96;100889.75;3157691;28;20052;-68
2022/12/29 02:01:05;;;;;;;22.88;11.80;;;;;;;6.29;74.11;100888.84;3158927;28;20201;-68
2022/12/29 02:02:36;;;;;;;27.55;11.65;;;;;;;6.32;73.86;100888.81;3159120;28;20063;-67
2022/12/29 02:04:11;;;;;;;21.85;10.90;;;;;;;6.35;73.90;100886.19;3151591;28;20052;-68
2022/12/29 02:05:49;;;;;;;24.67;11.18;;;;;;;6.38;73.66;100880.97;3154049;28;20098;-67
2022/12/29 02:07:23;;;;;;;25.08;11.48;;;;;;;6.42;73.65;100876.63;3158832;28;20109;-68
2022/12/29 02:08:58;;;;;;;22.35;11.40;;;;;;;6.45;73.61;100874.00;3158852;28;20509;-68
2022/12/29 02:10:34;;;;;;;22.45;10.65;;;;;;;6.35;73.51;100857.72;3154310;28;20040;-68
2022/12/29 02:12:06;;;;;;;24.13;11.73;;;;;;;6.47;73.37;100864.50;3159188;28;20079;-68
2022/12/29 02:13:38;;;;;;;22.63;11.88;;;;;;;6.52;73.35;100871.34;3159004;28;20044;-68
2022/12/29 02:15:10;;;;;;;24.80;11.93;;;;;;;6.54;73.21;100861.84;3159213;28;20482;-68
2022/12/29 02:16:57;;;;;;;28.98;12.57;;;;;;;6.54;73.06;100866.16;3155526;28;20048;-68
2022/12/29 02:18:40;;;;;;;25.33;13.18;;;;;;;6.53;73.20;100865.28;3158891;28;20051;-68
2022/12/29 02:21:00;;;;;;;26.77;13.43;;;;;;;6.54;72.90;100872.19;3159253;28;20052;-69
2022/12/29 02:22:43;;;;;;;22.98;12.25;;;;;;;6.53;73.16;100854.06;3132706;28;20056;-68
2022/12/29 02:24:58;;;;;;;24.63;12.50;;;;;;;6.56;72.93;100852.31;3132491;28;20049;-68
2022/12/29 02:26:58;;;;;;;28.20;12.27;;;;;;;6.52;72.95;100850.63;3105002;28;20053;-68
2022/12/29 02:28:54;;;;;;;26.75;12.90;;;;;;;6.57;72.83;100854.03;3147270;28;20048;-68
2022/12/29 02:30:52;;;;;;;26.02;13.02;;;;;;;6.60;72.92;100854.00;3157384;28;20043;-68
2022/12/29 02:32:31;;;;;;;29.05;13.48;;;;;;;6.63;72.71;100847.94;3158726;28;20051;-68
2022/12/29 02:34:11;;;;;;;34.88;14.73;;;;;;;6.66;72.68;100850.47;3158258;28;20186;-68
2022/12/29 02:35:50;;;;;;;28.23;14.48;;;;;;;6.69;72.45;100845.25;3158166;28;20060;-68
2022/12/29 02:37:26;;;;;;;26.17;13.55;;;;;;;6.71;72.59;100840.91;3144097;28;20117;-68
2022/12/29 02:39:08;;;;;;;25.70;12.73;;;;;;;6.75;72.43;100844.34;3154202;28;20525;-68
2022/12/29 02:40:44;;;;;;;29.67;14.52;;;;;;;6.60;72.39;100816.91;3158198;28;20052;-69
2022/12/29 02:42:24;;;;;;;29.10;14.13;;;;;;;6.79;72.23;100846.00;3157934;28;20056;-69
2022/12/29 02:44:05;;;;;;;23.08;13.07;;;;;;;6.81;72.23;100841.66;3155986;28;20434;-68
2022/12/29 02:45:45;;;;;;;26.77;12.52;;;;;;;6.76;72.12;100838.28;3157793;28;20055;-67
2022/12/29 02:47:23;;;;;;;29.83;13.43;;;;;;;6.79;72.21;100846.84;3157897;28;20101;-68
2022/12/29 02:49:01;;;;;;;31.02;15.02;;;;;;;6.59;72.22;100807.41;3157963;28;20483;-68
2022/12/29 02:50:37;;;;;;;28.40;14.88;;;;;;;6.81;72.11;100839.06;3157784;28;20052;-68
2022/12/29 02:52:15;;;;;;;23.20;12.98;;;;;;;6.81;72.23;100839.06;3148284;28;20060;-70
2022/12/29 02:55:37;;;;;;;31.63;14.07;;;;;;;6.81;72.06;100833.91;3157744;28;20055;-69
2022/12/29 02:57:15;;;;;;;25.27;13.05;;;;;;;6.76;71.74;100827.91;3154284;28;20055;-68
2022/12/29 02:58:47;;;;;;;29.15;12.82;;;;;;;6.80;72.02;100838.22;3155851;28;20048;-69
2022/12/29 03:00:18;;;;;;;25.40;13.05;;;;;;;6.80;71.70;100835.63;3157751;28;20078;-69
2022/12/29 03:02:17;;;;;;;26.65;12.85;;;;;;;6.81;71.65;100836.50;3157466;28;20052;-69
2022/12/29 03:04:04;;;;;;;23.48;11.55;;;;;;;6.75;71.72;100827.06;3157868;28;20044;-69
2022/12/29 03:05:56;;;;;;;22.88;11.10;;;;;;;6.77;71.69;100834.78;3157933;28;20197;-68
2022/12/29 03:07:32;;;;;;;26.45;12.10;;;;;;;6.71;71.69;100824.53;3157892;28;20044;-69
2022/12/29 03:09:15;;;;;;;27.85;12.45;;;;;;;6.68;71.58;100827.16;3153403;28;20584;-68
2022/12/29 03:10:53;;;;;;;28.67;12.10;;;;;;;6.68;71.93;100837.50;3157798;28;20048;-68
2022/12/29 03:16:39;;;;;;;30.45;13.05;;;;;;;6.58;71.89;100832.44;3138924;28;20083;-69
2022/12/29 03:18:20;;;;;;;25.85;12.65;;;;;;;6.54;71.83;100835.97;3157394;28;20044;-69
2022/12/29 03:19:57;;;;;;;27.05;12.52;;;;;;;6.47;71.81;100823.94;3157542;28;20123;-69
2022/12/29 03:23:26;;;;;;;27.08;12.68;;;;;;;6.41;72.11;100831.78;3152990;28;20044;-69
2022/12/29 03:25:04;;;;;;;30.95;13.77;;;;;;;6.37;72.16;100825.78;3153779;28;20052;-69
2022/12/29 03:26:37;;;;;;;32.45;15.32;;;;;;;6.30;72.23;100820.69;3149932;28;20047;-68
2022/12/29 03:28:13;;;;;;;26.05;14.20;;;;;;;6.33;72.31;100833.59;3157686;28;20505;-68
2022/12/29 03:29:52;;;;;;;30.33;15.35;;;;;;;6.30;72.16;100833.63;3157615;28;20417;-68
2022/12/29 03:31:25;;;;;;;30.35;15.43;;;;;;;6.25;72.35;100825.09;3157335;28;20097;-68
2022/12/29 03:34:49;;;;;;;31.88;15.98;;;;;;;6.19;72.48;100828.59;3180935;27;20439;-69
2022/12/29 03:36:29;;;;;;;30.70;15.10;;;;;;;6.18;72.42;100826.84;3176012;27;20536;-68
2022/12/29 03:38:10;;;;;;;39.05;16.80;;;;;;;6.17;72.30;100829.47;3173012;28;20043;-68
2022/12/29 03:39:41;;;;;;;34.63;16.25;;;;;;;6.14;72.51;100826.03;3180850;27;20047;-69
2022/12/29 03:41:17;;;;;;;30.63;15.95;;;;;;;6.14;72.25;100831.22;3175897;27;20044;-69
2022/12/29 03:42:49;;;;;;;30.85;15.55;;;;;;;6.09;72.36;100820.09;3173176;28;20039;-69
2022/12/29 03:44:22;;;;;;;38.22;15.90;;;;;;;6.14;72.20;100825.19;3172031;27;20523;-69
2022/12/29 03:45:53;;;;;;;33.13;17.00;;;;;;;6.11;72.14;100826.06;3180578;27;20039;-68
2022/12/29 03:47:26;;;;;;;30.08;14.85;;;;;;;6.12;72.20;100822.63;3180464;27;20462;-70
2022/12/29 03:48:58;;;;;;;32.03;16.05;;;;;;;6.03;72.05;100808.94;3181013;27;20107;-68
2022/12/29 03:50:31;;;;;;;33.95;15.27;;;;;;;6.08;72.16;100820.09;3178793;27;20138;-68
2022/12/29 03:52:02;;;;;;;32.70;15.25;;;;;;;5.99;72.03;100815.88;3163969;28;20063;-68
2022/12/29 03:53:34;;;;;;;34.33;15.43;;;;;;;6.04;72.11;100821.00;3180535;27;20049;-68
2022/12/29 03:55:06;;;;;;;27.83;15.68;;;;;;;5.14;72.06;100675.38;3180886;27;20043;-67
2022/12/29 03:56:38;;;;;;;34.13;15.52;;;;;;;5.99;72.22;100823.63;3167781;27;20040;-70
2022/12/29 03:58:10;;;;;;;31.45;14.80;;;;;;;5.98;72.18;100819.31;3179905;28;20538;-70
2022/12/29 03:59:41;;;;;;;33.00;15.48;;;;;;;5.89;72.08;100812.50;3166347;28;20538;-70
2022/12/29 04:01:13;;;;;;;28.75;15.60;;;;;;;5.95;72.23;100815.94;3167786;28;20142;-68
2022/12/29 04:02:45;;;;;;;29.92;15.75;;;;;;;5.88;72.29;100810.75;3176856;28;20051;-69
2022/12/29 04:04:17;;;;;;;33.45;15.82;;;;;;;5.87;72.26;100818.53;3171872;27;20097;-67
2022/12/29 04:05:50;;;;;;;31.95;16.02;;;;;;;5.91;72.11;100825.38;3175245;28;20055;-69
2022/12/29 04:07:22;;;;;;;30.27;15.73;;;;;;;5.89;72.33;100829.72;3175782;27;20051;-68
2022/12/29 04:08:54;;;;;;;37.13;16.00;;;;;;;5.86;72.17;100830.63;3180204;27;20052;-67
2022/12/29 04:10:25;;;;;;;34.10;16.48;;;;;;;5.82;72.42;100830.63;3174766;27;20431;-68
2022/12/29 04:11:56;;;;;;;36.90;16.02;;;;;;;5.84;72.62;100842.69;3167447;28;20059;-68
2022/12/29 04:13:29;;;;;;;38.75;16.95;;;;;;;5.82;72.43;100833.22;3171096;28;20039;-68
2022/12/29 04:15:00;;;;;;;37.88;16.95;;;;;;;5.80;72.57;100837.56;3180297;27;20096;-68
2022/12/29 04:16:35;;;;;;;32.35;16.95;;;;;;;5.80;72.54;100837.56;3173551;27;20054;-68
2022/12/29 04:18:07;;;;;;;41.00;17.80;;;;;;;5.74;72.52;100829.84;3169704;28;20382;-68
2022/12/29 04:19:39;;;;;;;37.47;17.45;;;;;;;5.75;72.49;100842.78;3178820;27;20051;-68
2022/12/29 04:21:11;;;;;;;39.15;18.23;;;;;;;5.70;72.67;100840.22;3167771;28;20497;-68
2022/12/29 04:22:43;;;;;;;37.50;17.30;;;;;;;5.73;72.82;100843.66;3180625;27;20051;-69
2022/12/29 04:24:15;;;;;;;31.90;15.95;;;;;;;5.72;72.73;100853.13;3180369;27;20051;-69
2022/12/29 04:25:47;;;;;;;34.53;17.50;;;;;;;5.70;72.92;100850.56;3180191;27;20051;-69
2022/12/29 04:27:18;;;;;;;36.47;18.13;;;;;;;5.64;73.09;100842.00;3168165;27;20134;-69
2022/12/29 04:28:49;;;;;;;36.88;17.98;;;;;;;5.67;72.83;100850.56;3175049;28;20054;-69
2022/12/29 04:30:21;;;;;;;34.53;17.30;;;;;;;5.67;73.03;100854.91;3167325;28;20484;-69
2022/12/29 04:31:53;;;;;;;39.95;19.77;;;;;;;5.65;73.11;100854.91;3167367;28;20048;-69
2022/12/29 04:33:24;;;;;;;34.80;18.67;;;;;;;5.57;73.25;100854.13;3167389;28;20047;-69
2022/12/29 04:34:56;;;;;;;40.17;19.80;;;;;;;5.58;73.43;100858.41;3175047;28;20163;-69
2022/12/29 04:36:29;;;;;;;40.63;18.38;;;;;;;5.56;73.48;100867.91;3175759;27;20043;-69
2022/12/29 04:38:01;;;;;;;41.10;18.23;;;;;;;5.51;73.76;100864.50;3173643;27;20093;-68
2022/12/29 04:39:34;;;;;;;40.50;17.92;;;;;;;5.48;73.73;100864.53;3167093;28;20052;-69
2022/12/29 04:41:06;;;;;;;37.70;18.70;;;;;;;5.35;74.02;100855.13;3172248;28;20047;-69
2022/12/29 04:42:37;;;;;;;40.00;18.60;;;;;;;5.40;74.15;100871.47;3180098;27;20043;-69
2022/12/29 04:44:08;;;;;;;40.47;19.45;;;;;;;5.34;74.25;100863.75;3177890;27;20040;-69
2022/12/29 04:45:44;;;;;;;37.78;19.25;;;;;;;5.38;74.26;100873.19;3174073;27;20188;-68
2022/12/29 04:47:16;;;;;;;37.40;20.67;;;;;;;5.35;74.38;100879.22;3155028;28;20726;-68
2022/12/29 04:48:48;;;;;;;42.00;20.02;;;;;;;5.33;74.47;100880.13;3147999;28;20059;-68
2022/12/29 04:50:18;;;;;;;41.63;19.75;;;;;;;5.32;74.47;100870.66;3166505;28;20119;-69
2022/12/29 04:51:52;;;;;;;40.33;20.05;;;;;;;5.28;74.41;100866.38;3163171;27;20047;-69
2022/12/29 04:53:22;;;;;;;41.85;20.30;;;;;;;4.88;74.53;100804.66;3171247;28;20047;-69
2022/12/29 04:54:54;;;;;;;42.75;20.98;;;;;;;5.30;74.49;100875.00;3171218;28;20509;-68
2022/12/29 04:56:26;;;;;;;52.17;21.25;;;;;;;5.25;74.52;100870.69;3170275;28;20056;-69
2022/12/29 04:57:58;;;;;;;44.03;20.98;;;;;;;5.24;74.34;100866.41;3158900;28;20052;-68
2022/12/29 04:59:30;;;;;;;44.60;20.55;;;;;;;5.25;74.36;100872.41;3156715;28;20074;-68
2022/12/29 05:01:01;;;;;;;39.47;20.67;;;;;;;5.30;74.27;100885.31;3167153;28;20066;-68
2022/12/29 05:02:32;;;;;;;39.05;19.73;;;;;;;5.31;74.39;100884.44;3163506;28;20414;-69
2022/12/29 05:04:05;;;;;;;39.40;19.88;;;;;;;5.30;74.24;100886.16;3158736;28;20538;-67
2022/12/29 05:05:35;;;;;;;44.33;20.33;;;;;;;5.27;74.38;100886.19;3158577;28;20060;-68
2022/12/29 05:07:09;;;;;;;38.72;21.95;;;;;;;5.24;74.47;100884.47;3163776;28;20044;-68
2022/12/29 05:08:40;;;;;;;42.72;21.35;;;;;;;5.19;74.65;100878.47;3166397;28;20044;-68
2022/12/29 05:10:12;;;;;;;43.80;20.80;;;;;;;5.18;74.79;100887.09;3158569;28;20040;-68
2022/12/29 05:11:43;;;;;;;41.72;21.60;;;;;;;5.15;74.83;100894.88;3161835;28;20051;-68
2022/12/29 05:13:15;;;;;;;44.63;23.52;;;;;;;5.10;74.78;100888.84;3168645;28;20051;-68
2022/12/29 05:14:47;;;;;;;52.70;23.27;;;;;;;5.14;74.69;100895.72;3158436;28;20478;-68
2022/12/29 05:16:19;;;;;;;45.20;22.52;;;;;;;5.14;74.77;100892.28;3158692;28;20055;-68
2022/12/29 05:17:51;;;;;;;45.65;23.20;;;;;;;5.10;74.63;100886.28;3158254;28;20048;-70
2022/12/29 05:19:23;;;;;;;50.28;23.02;;;;;;;5.08;74.67;100885.41;3158427;28;20048;-68
2022/12/29 05:20:54;;;;;;;44.92;22.17;;;;;;;5.05;74.78;100875.09;3170720;28;20051;-70
2022/12/29 05:22:27;;;;;;;49.28;22.42;;;;;;;5.09;74.79;100894.91;3159233;28;20495;-70
2022/12/29 05:23:58;;;;;;;39.17;21.65;;;;;;;4.62;74.75;100805.66;3169224;28;20132;-67
2022/12/29 05:25:30;;;;;;;41.03;20.60;;;;;;;5.07;74.62;100881.13;3160499;28;20524;-70
2022/12/29 05:27:02;;;;;;;43.53;21.48;;;;;;;5.06;74.72;100883.72;3158358;28;20055;-70
2022/12/29 05:28:34;;;;;;;46.72;21.95;;;;;;;4.99;74.83;100868.25;3157988;28;20048;-69
2022/12/29 05:30:07;;;;;;;45.83;21.73;;;;;;;4.95;74.85;100869.16;3165551;28;20044;-68
2022/12/29 05:31:39;;;;;;;45.35;21.80;;;;;;;4.98;74.99;100879.47;3171038;28;20533;-68
2022/12/29 05:33:12;;;;;;;40.20;20.13;;;;;;;4.92;74.97;100865.72;3164942;28;20129;-68
2022/12/29 05:34:43;;;;;;;59.47;23.40;;;;;;;4.93;75.07;100876.03;3157969;28;20064;-68
2022/12/29 05:36:14;;;;;;;51.75;23.13;;;;;;;4.90;75.17;100875.19;3162468;28;20047;-68
2022/12/29 05:37:47;;;;;;;47.17;23.23;;;;;;;4.85;75.20;100867.50;3168011;28;20048;-68
2022/12/29 05:39:19;;;;;;;51.90;22.83;;;;;;;4.85;75.27;100874.34;3151019;28;20048;-68
2022/12/29 05:40:51;;;;;;;54.45;23.00;;;;;;;4.86;75.20;100878.66;3160520;28;20549;-67
2022/12/29 05:42:23;;;;;;;52.13;25.15;;;;;;;4.86;75.16;100873.50;3170347;28;20420;-68
2022/12/29 05:43:55;;;;;;;53.75;23.80;;;;;;;4.85;75.03;100867.50;3164863;28;20059;-68
2022/12/29 05:45:27;;;;;;;50.70;22.73;;;;;;;4.86;74.99;100866.59;3158111;28;20043;-69
2022/12/29 05:46:59;;;;;;;54.08;23.95;;;;;;;4.86;74.93;100868.34;3145520;28;20561;-68
2022/12/29 05:48:31;;;;;;;54.60;24.00;;;;;;;4.86;74.86;100870.91;3156786;28;21551;-68
2022/12/29 05:50:05;;;;;;;53.83;23.30;;;;;;;4.83;74.80;100860.63;3168903;28;20481;-69
2022/12/29 05:51:37;;;;;;;52.10;23.25;;;;;;;4.72;74.70;100838.28;3164026;27;20564;-69
2022/12/29 05:53:10;;;;;;;45.22;23.42;;;;;;;4.77;74.67;100849.44;3167816;28;20052;-68
2022/12/29 05:54:41;;;;;;;43.90;21.95;;;;;;;4.81;74.61;100862.34;3170698;28;20058;-68
2022/12/29 05:56:12;;;;;;;48.38;21.45;;;;;;;4.62;74.64;100839.19;3161872;28;20040;-68
2022/12/29 05:57:43;;;;;;;54.55;21.55;;;;;;;4.76;74.72;100862.34;3165113;28;20116;-69
2022/12/29 05:59:15;;;;;;;47.75;22.17;;;;;;;4.73;74.74;100859.78;3161208;27;20044;-68
2022/12/29 06:00:47;;;;;;;59.25;21.25;;;;;;;4.02;74.61;100745.72;3164386;28;20452;-70
2022/12/29 06:02:19;;;;;;;51.90;23.85;;;;;;;4.71;74.87;100858.94;3170574;28;20063;-70
2022/12/29 06:03:51;;;;;;;52.10;22.65;;;;;;;3.91;74.75;100740.59;3166728;28;20051;-70
2022/12/29 06:05:23;;;;;;;51.40;22.45;;;;;;;4.68;74.62;100872.72;3166059;28;20101;-67
2022/12/29 06:06:54;;;;;;;46.53;22.10;;;;;;;4.67;74.58;100873.56;3157508;28;20043;-69
2022/12/29 06:08:28;;;;;;;52.03;21.55;;;;;;;4.63;74.59;100869.28;3157565;28;20108;-68
2022/12/29 06:10:00;;;;;;;46.53;21.77;;;;;;;4.60;74.58;100869.28;3159838;28;20048;-69
2022/12/29 06:11:30;;;;;;;52.05;21.70;;;;;;;4.64;74.60;100873.56;3170186;28;20047;-68
2022/12/29 06:13:03;;;;;;;45.53;21.65;;;;;;;4.65;74.72;100874.44;3170669;28;20176;-68
2022/12/29 06:14:35;;;;;;;47.95;21.50;;;;;;;4.65;74.61;100877.88;3159331;28;20047;-70
2022/12/29 06:16:07;;;;;;;47.35;21.65;;;;;;;4.66;74.54;100873.56;3148431;28;20113;-69
2022/12/29 06:17:40;;;;;;;46.58;21.67;;;;;;;4.66;74.65;100865.84;3157260;28;20135;-69
2022/12/29 06:19:12;;;;;;;47.22;22.13;;;;;;;4.67;74.62;100860.66;3157919;28;20434;-69
2022/12/29 06:20:44;;;;;;;46.20;21.73;;;;;;;4.71;74.69;100859.78;3168670;28;20054;-69
2022/12/29 06:22:15;;;;;;;58.78;22.75;;;;;;;4.36;74.68;100800.59;3169178;28;20047;-69
2022/12/29 06:23:49;;;;;;;57.80;23.15;;;;;;;4.80;74.68;100861.47;3160721;28;20485;-69
2022/12/29 06:25:21;;;;;;;52.90;21.85;;;;;;;4.89;74.46;100878.66;3157782;28;20040;-69
2022/12/29 06:26:52;;;;;;;52.13;22.67;;;;;;;4.95;74.54;100873.47;3165351;28;20048;-69
2022/12/29 06:28:25;;;;;;;47.50;21.70;;;;;;;5.02;74.41;100881.13;3170237;28;20631;-69
2022/12/29 06:29:56;;;;;;;52.15;22.38;;;;;;;5.04;74.21;100868.25;3170007;28;20187;-70
2022/12/29 06:31:28;;;;;;;48.20;21.65;;;;;;;5.15;74.07;100884.53;3164036;28;20048;-69
2022/12/29 06:32:59;;;;;;;50.60;21.98;;;;;;;5.21;73.72;100884.50;3157351;28;20044;-69
2022/12/29 06:34:31;;;;;;;45.70;20.98;;;;;;;5.22;73.71;100885.34;3161446;28;20062;-69
2022/12/29 06:36:03;;;;;;;58.97;22.65;;;;;;;5.28;73.58;100877.56;3166214;28;20044;-68
2022/12/29 06:37:35;;;;;;;57.95;24.20;;;;;;;5.37;73.30;100881.81;3157026;28;20055;-68
2022/12/29 06:39:09;;;;;;;60.95;23.88;;;;;;;5.50;73.47;100890.34;3157410;28;20155;-68
2022/12/29 06:40:42;;;;;;;64.85;22.50;;;;;;;5.58;73.36;100897.16;3150417;28;20109;-68
2022/12/29 06:42:13;;;;;;;50.15;22.58;;;;;;;5.68;73.26;100895.41;3158843;28;20094;-70
2022/12/29 06:43:45;;;;;;;81.10;32.47;;;;;;;5.77;73.33;100897.91;3168898;28;20145;-67
2022/12/29 06:45:16;;;;;;;70.95;28.10;;;;;;;5.82;73.00;100900.44;3169595;28;20051;-67
2022/12/29 06:46:48;;;;;;;59.70;25.70;;;;;;;5.73;72.92;100874.66;3166882;28;20502;-68
2022/12/29 06:48:20;;;;;;;57.10;24.40;;;;;;;5.88;72.80;100887.47;3167902;28;20047;-71
2022/12/29 06:49:52;;;;;;;64.30;23.40;;;;;;;6.02;72.81;100908.06;3170167;28;20112;-69
2022/12/29 06:51:24;;;;;;;55.88;24.75;;;;;;;6.09;72.65;100910.59;3165229;28;20386;-69
2022/12/29 06:52:55;;;;;;;58.95;23.55;;;;;;;6.19;72.56;100910.50;3154868;28;20115;-67
2022/12/29 06:54:29;;;;;;;60.65;22.75;;;;;;;6.28;72.54;100911.28;3157166;28;20048;-69
2022/12/29 06:56:00;;;;;;;58.80;27.67;;;;;;;6.37;72.11;100902.56;3164448;28;20044;-68
2022/12/29 06:57:32;;;;;;;56.28;25.75;;;;;;;6.46;71.96;100914.53;3165736;28;20047;-69
2022/12/29 06:59:04;;;;;;;78.20;28.35;;;;;;;6.49;71.86;100904.16;3162260;28;20151;-67
2022/12/29 07:00:36;;;;;;;73.15;30.75;;;;;;;6.58;71.63;100910.09;3162026;28;20794;-68
2022/12/29 07:02:11;;;;;;;71.03;30.80;;;;;;;6.55;71.22;100892.00;3165647;28;20043;-68
2022/12/29 07:03:43;;;;;;;73.55;32.42;;;;;;;6.73;70.96;100911.66;3165701;28;20454;-68
2022/12/29 07:05:15;;;;;;;85.55;35.03;;;;;;;6.83;70.70;100920.16;3156926;28;20504;-69
2022/12/29 07:06:46;;;;;;;68.50;33.60;;;;;;;6.89;70.81;100922.69;3159602;28;20444;-68
2022/12/29 07:08:17;;;;;;;67.30;30.27;;;;;;;7.00;70.87;100917.38;3169600;28;20100;-69
2022/12/29 07:09:50;;;;;;;67.03;30.30;;;;;;;7.07;70.48;100916.44;3166608;28;20078;-68
2022/12/29 07:11:22;;;;;;;59.25;28.98;;;;;;;7.19;70.15;100920.59;3157142;28;20048;-68
2022/12/29 07:12:55;;;;;;;61.53;27.20;;;;;;;7.28;70.14;100923.06;3169882;28;20842;-68
2022/12/29 07:14:26;;;;;;;59.97;28.73;;;;;;;7.35;69.77;100927.25;3157156;28;20113;-68
2022/12/29 07:15:58;;;;;;;56.08;26.80;;;;;;;7.44;69.73;100923.69;3156587;28;20437;-69
2022/12/29 07:17:30;;;;;;;60.83;28.35;;;;;;;7.53;69.44;100929.59;3157280;28;20056;-68
2022/12/29 07:19:02;;;;;;;56.72;26.85;;;;;;;7.62;69.32;100918.22;3156687;28;20165;-67
2022/12/29 07:20:34;;;;;;;56.75;26.00;;;;;;;7.84;69.04;100926.56;3157116;28;20440;-70
2022/12/29 07:22:06;;;;;;;63.92;26.20;;;;;;;8.05;68.42;100927.09;3156823;28;20052;-68
2022/12/29 07:23:37;;;;;;;56.92;25.80;;;;;;;8.25;68.03;100921.53;3164568;28;20044;-69
2022/12/29 07:25:11;;;;;;;46.08;22.92;;;;;;;8.49;67.53;100913.34;3162578;28;20101;-68
2022/12/29 07:26:43;;;;;;;39.90;22.40;;;;;;;8.81;66.73;100924.84;3163289;28;20043;-69
2022/12/29 07:28:14;;;;;;;44.67;22.23;;;;;;;9.07;66.07;100916.50;3163739;28;20677;-69
2022/12/29 07:29:46;;;;;;;46.17;22.17;;;;;;;9.33;65.11;100910.75;3161608;28;20435;-69
2022/12/29 07:31:20;;;;;;;42.15;21.98;;;;;;;9.54;63.44;100918.06;3160962;28;20040;-69
2022/12/29 07:32:52;;;;;;;52.10;25.13;;;;;;;9.47;62.40;100892.25;3156861;28;20048;-70
2022/12/29 07:34:24;;;;;;;51.22;23.95;;;;;;;9.70;62.63;100909.91;3156670;28;20560;-69
2022/12/29 07:35:56;;;;;;;50.03;22.95;;;;;;;10.00;61.90;100916.13;3157939;28;20048;-69
2022/12/29 07:37:28;;;;;;;46.60;23.20;;;;;;;10.07;60.59;100912.47;3147605;28;20052;-69
2022/12/29 07:39:00;;;;;;;45.50;23.58;;;;;;;10.14;60.09;100908.78;3157044;28;20501;-69
2022/12/29 07:40:33;;;;;;;46.65;21.75;;;;;;;10.17;59.66;100910.47;3157067;28;20121;-69
2022/12/29 07:42:05;;;;;;;47.90;22.52;;;;;;;10.31;59.45;100915.38;3169640;28;20191;-70
2022/12/29 07:43:37;;;;;;;48.35;22.65;;;;;;;10.44;59.19;100908.91;3157423;28;20444;-69
2022/12/29 07:45:10;;;;;;;45.90;22.58;;;;;;;10.65;58.78;100920.53;3165902;28;20104;-69
2022/12/29 07:46:41;;;;;;;44.20;21.80;;;;;;;10.75;57.97;100910.69;3167290;28;20106;-69
2022/12/29 07:48:13;;;;;;;41.00;21.05;;;;;;;10.80;57.68;100903.63;3169473;28;20048;-69
2022/12/29 07:49:45;;;;;;;44.45;22.35;;;;;;;10.85;57.60;100909.53;3169387;28;20408;-69